sensor_id;sensor_type;location;lat;lon;timestamp;P1;durP1;ratioP1;P2;durP2;ratioP2
37199;SDS011;23096;50.892;16.746;2023-06-14T00:01:17;3.00;;;2.70;;
37199;SDS011;23096;50.892;16.746;2023-06-14T00:03:45;3.90;;;2.80;;
37199;SDS011;23096;50.892;16.746;2023-06-14T00:06:12;3.60;;;3.30;;
37199;SDS011;23096;50.892;16.746;2023-06-14T00:08:38;4.50;;;3.30;;
37199;SDS011;23096;50.892;16.746;2023-06-14T00:11:05;5.20;;;3.20;;
37199;SDS011;23096;50.892;16.746;2023-06-14T00:13:30;4.90;;;3.20;;
37199;SDS011;23096;50.892;16.746;2023-06-14T00:15:56;6.80;;;3.80;;
37199;SDS011;23096;50.892;16.746;2023-06-14T00:18:22;5.70;;;3.40;;
37199;SDS011;23096;50.892;16.746;2023-06-14T00:20:49;4.80;;;3.60;;
37199;SDS011;23096;50.892;16.746;2023-06-14T00:23:15;5.00;;;3.30;;
37199;SDS011;23096;50.892;16.746;2023-06-14T00:25:41;5.20;;;3.50;;
37199;SDS011;23096;50.892;16.746;2023-06-14T00:28:07;3.00;;;2.50;;
37199;SDS011;23096;50.892;16.746;2023-06-14T00:30:34;7.10;;;2.90;;
37199;SDS011;23096;50.892;16.746;2023-06-14T00:33:01;3.50;;;2.80;;
37199;SDS011;23096;50.892;16.746;2023-06-14T00:35:27;5.20;;;3.30;;
37199;SDS011;23096;50.892;16.746;2023-06-14T00:37:52;4.70;;;3.40;;
37199;SDS011;23096;50.892;16.746;2023-06-14T00:40:20;4.20;;;3.20;;
37199;SDS011;23096;50.892;16.746;2023-06-14T00:42:47;3.20;;;2.70;;
37199;SDS011;23096;50.892;16.746;2023-06-14T00:45:12;5.60;;;2.80;;
37199;SDS011;23096;50.892;16.746;2023-06-14T00:47:40;3.50;;;2.70;;
37199;SDS011;23096;50.892;16.746;2023-06-14T00:50:08;3.10;;;2.80;;
37199;SDS011;23096;50.892;16.746;2023-06-14T00:52:34;4.10;;;3.80;;
37199;SDS011;23096;50.892;16.746;2023-06-14T00:55:01;3.40;;;3.10;;
37199;SDS011;23096;50.892;16.746;2023-06-14T00:57:28;3.90;;;3.00;;
37199;SDS011;23096;50.892;16.746;2023-06-14T00:59:57;4.70;;;3.70;;
37199;SDS011;23096;50.892;16.746;2023-06-14T01:02:22;4.30;;;3.30;;
37199;SDS011;23096;50.892;16.746;2023-06-14T01:04:49;4.20;;;3.10;;
37199;SDS011;23096;50.892;16.746;2023-06-14T01:10:35;4.20;;;3.00;;
37199;SDS011;23096;50.892;16.746;2023-06-14T01:15:43;5.00;;;3.20;;
37199;SDS011;23096;50.892;16.746;2023-06-14T01:18:09;4.10;;;3.00;;
37199;SDS011;23096;50.892;16.746;2023-06-14T01:20:43;3.90;;;3.20;;
37199;SDS011;23096;50.892;16.746;2023-06-14T01:23:11;3.50;;;3.20;;
37199;SDS011;23096;50.892;16.746;2023-06-14T01:25:39;4.60;;;3.70;;
37199;SDS011;23096;50.892;16.746;2023-06-14T01:28:06;4.80;;;3.00;;
37199;SDS011;23096;50.892;16.746;2023-06-14T01:30:36;3.80;;;3.10;;
37199;SDS011;23096;50.892;16.746;2023-06-14T01:33:03;4.10;;;3.20;;
37199;SDS011;23096;50.892;16.746;2023-06-14T01:35:30;4.40;;;3.20;;
37199;SDS011;23096;50.892;16.746;2023-06-14T01:37:56;4.70;;;3.50;;
37199;SDS011;23096;50.892;16.746;2023-06-14T01:40:24;4.50;;;3.80;;
37199;SDS011;23096;50.892;16.746;2023-06-14T01:42:50;5.30;;;3.20;;
37199;SDS011;23096;50.892;16.746;2023-06-14T01:45:17;4.60;;;3.50;;
37199;SDS011;23096;50.892;16.746;2023-06-14T01:47:44;5.20;;;3.60;;
37199;SDS011;23096;50.892;16.746;2023-06-14T01:50:10;5.70;;;3.70;;
37199;SDS011;23096;50.892;16.746;2023-06-14T01:52:37;4.90;;;3.30;;
37199;SDS011;23096;50.892;16.746;2023-06-14T01:55:04;4.90;;;3.30;;
37199;SDS011;23096;50.892;16.746;2023-06-14T01:57:31;5.00;;;3.40;;
37199;SDS011;23096;50.892;16.746;2023-06-14T01:59:58;5.50;;;3.80;;
37199;SDS011;23096;50.892;16.746;2023-06-14T02:02:24;7.10;;;4.10;;
37199;SDS011;23096;50.892;16.746;2023-06-14T02:04:49;5.40;;;3.90;;
37199;SDS011;23096;50.892;16.746;2023-06-14T02:07:15;7.40;;;3.80;;
37199;SDS011;23096;50.892;16.746;2023-06-14T02:09:41;4.80;;;3.70;;
37199;SDS011;23096;50.892;16.746;2023-06-14T02:12:07;4.20;;;3.60;;
37199;SDS011;23096;50.892;16.746;2023-06-14T02:14:33;4.40;;;3.50;;
37199;SDS011;23096;50.892;16.746;2023-06-14T02:16:58;5.20;;;3.90;;
37199;SDS011;23096;50.892;16.746;2023-06-14T02:19:26;4.10;;;3.60;;
37199;SDS011;23096;50.892;16.746;2023-06-14T02:21:51;4.30;;;3.60;;
37199;SDS011;23096;50.892;16.746;2023-06-14T02:24:18;3.90;;;3.10;;
37199;SDS011;23096;50.892;16.746;2023-06-14T02:26:43;3.90;;;3.50;;
37199;SDS011;23096;50.892;16.746;2023-06-14T02:29:13;6.80;;;3.50;;
37199;SDS011;23096;50.892;16.746;2023-06-14T02:31:40;5.40;;;4.00;;
37199;SDS011;23096;50.892;16.746;2023-06-14T02:34:06;5.00;;;4.10;;
37199;SDS011;23096;50.892;16.746;2023-06-14T02:36:34;5.60;;;3.70;;
37199;SDS011;23096;50.892;16.746;2023-06-14T02:39:07;5.40;;;4.50;;
37199;SDS011;23096;50.892;16.746;2023-06-14T02:41:34;5.40;;;4.30;;
37199;SDS011;23096;50.892;16.746;2023-06-14T02:44:00;4.60;;;4.00;;
37199;SDS011;23096;50.892;16.746;2023-06-14T02:46:27;9.00;;;4.80;;
37199;SDS011;23096;50.892;16.746;2023-06-14T02:48:53;5.10;;;4.50;;
37199;SDS011;23096;50.892;16.746;2023-06-14T02:51:19;4.90;;;4.10;;
37199;SDS011;23096;50.892;16.746;2023-06-14T02:53:44;5.10;;;4.20;;
37199;SDS011;23096;50.892;16.746;2023-06-14T02:56:10;5.90;;;4.00;;
37199;SDS011;23096;50.892;16.746;2023-06-14T02:58:37;6.10;;;4.50;;
37199;SDS011;23096;50.892;16.746;2023-06-14T03:01:05;5.40;;;4.10;;
37199;SDS011;23096;50.892;16.746;2023-06-14T03:03:33;6.60;;;4.00;;
37199;SDS011;23096;50.892;16.746;2023-06-14T03:05:59;6.00;;;4.70;;
37199;SDS011;23096;50.892;16.746;2023-06-14T03:08:29;4.80;;;4.30;;
37199;SDS011;23096;50.892;16.746;2023-06-14T03:10:59;7.10;;;5.00;;
37199;SDS011;23096;50.892;16.746;2023-06-14T03:13:24;10.00;;;4.30;;
37199;SDS011;23096;50.892;16.746;2023-06-14T03:15:50;7.30;;;4.90;;
37199;SDS011;23096;50.892;16.746;2023-06-14T03:18:17;7.00;;;4.30;;
37199;SDS011;23096;50.892;16.746;2023-06-14T03:20:45;6.70;;;4.30;;
37199;SDS011;23096;50.892;16.746;2023-06-14T03:23:13;6.70;;;5.70;;
37199;SDS011;23096;50.892;16.746;2023-06-14T03:25:39;6.20;;;4.60;;
37199;SDS011;23096;50.892;16.746;2023-06-14T03:28:08;8.40;;;3.70;;
37199;SDS011;23096;50.892;16.746;2023-06-14T03:30:34;5.30;;;4.50;;
37199;SDS011;23096;50.892;16.746;2023-06-14T03:33:00;6.30;;;4.10;;
37199;SDS011;23096;50.892;16.746;2023-06-14T03:35:31;9.40;;;4.40;;
37199;SDS011;23096;50.892;16.746;2023-06-14T03:37:56;8.10;;;4.80;;
37199;SDS011;23096;50.892;16.746;2023-06-14T03:40:22;6.50;;;4.60;;
37199;SDS011;23096;50.892;16.746;2023-06-14T03:42:53;5.90;;;4.30;;
37199;SDS011;23096;50.892;16.746;2023-06-14T03:45:19;6.00;;;4.40;;
37199;SDS011;23096;50.892;16.746;2023-06-14T03:47:46;6.90;;;4.40;;
37199;SDS011;23096;50.892;16.746;2023-06-14T03:50:12;5.60;;;4.30;;
37199;SDS011;23096;50.892;16.746;2023-06-14T03:52:38;5.40;;;4.30;;
37199;SDS011;23096;50.892;16.746;2023-06-14T03:55:04;6.30;;;4.00;;
37199;SDS011;23096;50.892;16.746;2023-06-14T03:57:31;6.10;;;4.60;;
37199;SDS011;23096;50.892;16.746;2023-06-14T03:59:57;6.10;;;4.00;;
37199;SDS011;23096;50.892;16.746;2023-06-14T04:02:23;6.50;;;4.70;;
37199;SDS011;23096;50.892;16.746;2023-06-14T04:04:48;7.90;;;5.10;;
37199;SDS011;23096;50.892;16.746;2023-06-14T04:07:14;8.00;;;4.70;;
37199;SDS011;23096;50.892;16.746;2023-06-14T04:09:40;10.40;;;5.70;;
37199;SDS011;23096;50.892;16.746;2023-06-14T04:12:07;7.20;;;5.20;;
37199;SDS011;23096;50.892;16.746;2023-06-14T04:14:37;6.00;;;4.50;;
37199;SDS011;23096;50.892;16.746;2023-06-14T04:17:03;5.70;;;4.90;;
37199;SDS011;23096;50.892;16.746;2023-06-14T04:19:29;8.00;;;5.20;;
37199;SDS011;23096;50.892;16.746;2023-06-14T04:21:55;11.40;;;5.90;;
37199;SDS011;23096;50.892;16.746;2023-06-14T04:24:21;7.50;;;5.50;;
37199;SDS011;23096;50.892;16.746;2023-06-14T04:26:48;7.60;;;5.60;;
37199;SDS011;23096;50.892;16.746;2023-06-14T04:29:16;11.60;;;6.10;;
37199;SDS011;23096;50.892;16.746;2023-06-14T04:31:45;9.10;;;6.90;;
37199;SDS011;23096;50.892;16.746;2023-06-14T04:34:12;11.00;;;6.90;;
37199;SDS011;23096;50.892;16.746;2023-06-14T04:36:42;9.40;;;6.90;;
37199;SDS011;23096;50.892;16.746;2023-06-14T04:39:15;8.60;;;5.60;;
37199;SDS011;23096;50.892;16.746;2023-06-14T04:41:43;7.30;;;6.00;;
37199;SDS011;23096;50.892;16.746;2023-06-14T04:44:10;7.40;;;6.00;;
37199;SDS011;23096;50.892;16.746;2023-06-14T04:46:39;7.40;;;6.20;;
37199;SDS011;23096;50.892;16.746;2023-06-14T04:49:15;9.60;;;6.20;;
37199;SDS011;23096;50.892;16.746;2023-06-14T04:51:41;9.90;;;6.50;;
37199;SDS011;23096;50.892;16.746;2023-06-14T04:54:08;8.20;;;6.50;;
37199;SDS011;23096;50.892;16.746;2023-06-14T04:56:39;6.80;;;6.10;;
37199;SDS011;23096;50.892;16.746;2023-06-14T04:59:09;6.80;;;5.70;;
37199;SDS011;23096;50.892;16.746;2023-06-14T05:01:37;7.70;;;5.90;;
37199;SDS011;23096;50.892;16.746;2023-06-14T05:04:03;8.60;;;4.70;;
37199;SDS011;23096;50.892;16.746;2023-06-14T05:06:29;11.70;;;6.10;;
37199;SDS011;23096;50.892;16.746;2023-06-14T05:08:56;7.40;;;5.10;;
37199;SDS011;23096;50.892;16.746;2023-06-14T05:11:22;12.60;;;5.80;;
37199;SDS011;23096;50.892;16.746;2023-06-14T05:13:52;8.60;;;5.50;;
37199;SDS011;23096;50.892;16.746;2023-06-14T05:16:17;5.60;;;4.70;;
37199;SDS011;23096;50.892;16.746;2023-06-14T05:18:44;6.40;;;5.20;;
37199;SDS011;23096;50.892;16.746;2023-06-14T05:21:11;9.30;;;5.80;;
37199;SDS011;23096;50.892;16.746;2023-06-14T05:23:36;13.70;;;6.60;;
37199;SDS011;23096;50.892;16.746;2023-06-14T05:26:02;8.60;;;6.00;;
37199;SDS011;23096;50.892;16.746;2023-06-14T05:28:29;7.60;;;6.30;;
37199;SDS011;23096;50.892;16.746;2023-06-14T05:30:56;12.80;;;5.40;;
37199;SDS011;23096;50.892;16.746;2023-06-14T05:33:21;9.30;;;5.70;;
37199;SDS011;23096;50.892;16.746;2023-06-14T05:35:47;7.60;;;5.90;;
37199;SDS011;23096;50.892;16.746;2023-06-14T05:38:13;7.10;;;5.40;;
37199;SDS011;23096;50.892;16.746;2023-06-14T05:40:38;10.90;;;5.50;;
37199;SDS011;23096;50.892;16.746;2023-06-14T05:43:04;6.10;;;4.50;;
37199;SDS011;23096;50.892;16.746;2023-06-14T05:45:29;8.90;;;5.60;;
37199;SDS011;23096;50.892;16.746;2023-06-14T05:47:55;9.20;;;5.40;;
37199;SDS011;23096;50.892;16.746;2023-06-14T05:50:20;9.90;;;6.10;;
37199;SDS011;23096;50.892;16.746;2023-06-14T05:52:46;8.40;;;6.10;;
37199;SDS011;23096;50.892;16.746;2023-06-14T05:55:12;7.40;;;4.90;;
37199;SDS011;23096;50.892;16.746;2023-06-14T05:57:37;6.90;;;5.80;;
37199;SDS011;23096;50.892;16.746;2023-06-14T06:00:03;11.80;;;5.70;;
37199;SDS011;23096;50.892;16.746;2023-06-14T06:02:37;8.10;;;5.40;;
37199;SDS011;23096;50.892;16.746;2023-06-14T06:05:03;9.30;;;5.00;;
37199;SDS011;23096;50.892;16.746;2023-06-14T06:07:29;7.80;;;4.70;;
37199;SDS011;23096;50.892;16.746;2023-06-14T06:09:55;8.30;;;5.50;;
37199;SDS011;23096;50.892;16.746;2023-06-14T06:12:20;7.20;;;5.70;;
37199;SDS011;23096;50.892;16.746;2023-06-14T06:14:46;10.50;;;5.60;;
37199;SDS011;23096;50.892;16.746;2023-06-14T06:17:11;6.60;;;5.40;;
37199;SDS011;23096;50.892;16.746;2023-06-14T06:19:37;9.70;;;5.80;;
37199;SDS011;23096;50.892;16.746;2023-06-14T06:22:02;9.30;;;6.30;;
37199;SDS011;23096;50.892;16.746;2023-06-14T06:24:31;11.40;;;5.50;;
37199;SDS011;23096;50.892;16.746;2023-06-14T06:26:57;9.20;;;6.20;;
37199;SDS011;23096;50.892;16.746;2023-06-14T06:29:22;9.30;;;5.70;;
37199;SDS011;23096;50.892;16.746;2023-06-14T06:31:48;8.90;;;6.10;;
37199;SDS011;23096;50.892;16.746;2023-06-14T06:34:13;7.90;;;5.70;;
37199;SDS011;23096;50.892;16.746;2023-06-14T06:36:39;7.40;;;5.60;;
37199;SDS011;23096;50.892;16.746;2023-06-14T06:39:04;8.40;;;5.80;;
37199;SDS011;23096;50.892;16.746;2023-06-14T06:41:38;10.40;;;6.00;;
37199;SDS011;23096;50.892;16.746;2023-06-14T06:44:05;8.90;;;5.60;;
37199;SDS011;23096;50.892;16.746;2023-06-14T06:46:32;8.90;;;6.40;;
37199;SDS011;23096;50.892;16.746;2023-06-14T06:48:59;9.80;;;5.20;;
37199;SDS011;23096;50.892;16.746;2023-06-14T06:51:25;7.00;;;5.60;;
37199;SDS011;23096;50.892;16.746;2023-06-14T06:53:54;12.30;;;6.10;;
37199;SDS011;23096;50.892;16.746;2023-06-14T06:56:20;13.50;;;5.80;;
37199;SDS011;23096;50.892;16.746;2023-06-14T06:58:48;8.00;;;5.80;;
37199;SDS011;23096;50.892;16.746;2023-06-14T07:01:15;7.70;;;5.90;;
37199;SDS011;23096;50.892;16.746;2023-06-14T07:03:41;15.20;;;7.20;;
37199;SDS011;23096;50.892;16.746;2023-06-14T07:06:07;10.80;;;6.00;;
37199;SDS011;23096;50.892;16.746;2023-06-14T07:08:32;10.40;;;6.00;;
37199;SDS011;23096;50.892;16.746;2023-06-14T07:10:58;9.80;;;5.50;;
37199;SDS011;23096;50.892;16.746;2023-06-14T07:13:23;9.50;;;5.70;;
37199;SDS011;23096;50.892;16.746;2023-06-14T07:15:49;10.10;;;5.90;;
37199;SDS011;23096;50.892;16.746;2023-06-14T07:18:15;6.20;;;5.10;;
37199;SDS011;23096;50.892;16.746;2023-06-14T07:20:41;8.70;;;5.80;;
37199;SDS011;23096;50.892;16.746;2023-06-14T07:23:08;7.20;;;5.70;;
37199;SDS011;23096;50.892;16.746;2023-06-14T07:25:33;8.20;;;6.00;;
37199;SDS011;23096;50.892;16.746;2023-06-14T07:27:59;16.00;;;5.90;;
37199;SDS011;23096;50.892;16.746;2023-06-14T07:30:24;13.60;;;6.10;;
37199;SDS011;23096;50.892;16.746;2023-06-14T07:32:52;9.90;;;6.10;;
37199;SDS011;23096;50.892;16.746;2023-06-14T07:35:18;12.80;;;7.10;;
37199;SDS011;23096;50.892;16.746;2023-06-14T07:37:44;9.90;;;6.60;;
37199;SDS011;23096;50.892;16.746;2023-06-14T07:40:10;9.10;;;7.40;;
37199;SDS011;23096;50.892;16.746;2023-06-14T07:42:36;10.10;;;7.10;;
37199;SDS011;23096;50.892;16.746;2023-06-14T07:45:05;9.60;;;6.70;;
37199;SDS011;23096;50.892;16.746;2023-06-14T07:47:32;12.60;;;8.20;;
37199;SDS011;23096;50.892;16.746;2023-06-14T07:49:58;12.00;;;8.10;;
37199;SDS011;23096;50.892;16.746;2023-06-14T07:52:23;13.30;;;9.40;;
37199;SDS011;23096;50.892;16.746;2023-06-14T07:54:49;14.90;;;8.90;;
37199;SDS011;23096;50.892;16.746;2023-06-14T07:57:14;12.90;;;8.90;;
37199;SDS011;23096;50.892;16.746;2023-06-14T07:59:40;13.30;;;9.30;;
37199;SDS011;23096;50.892;16.746;2023-06-14T08:02:05;11.90;;;9.10;;
37199;SDS011;23096;50.892;16.746;2023-06-14T08:04:31;12.40;;;9.40;;
37199;SDS011;23096;50.892;16.746;2023-06-14T08:06:58;12.50;;;8.80;;
37199;SDS011;23096;50.892;16.746;2023-06-14T08:09:24;18.70;;;9.20;;
37199;SDS011;23096;50.892;16.746;2023-06-14T08:11:50;14.10;;;8.70;;
37199;SDS011;23096;50.892;16.746;2023-06-14T08:14:16;10.30;;;9.10;;
37199;SDS011;23096;50.892;16.746;2023-06-14T08:16:41;13.70;;;11.50;;
37199;SDS011;23096;50.892;16.746;2023-06-14T08:19:07;14.40;;;11.20;;
37199;SDS011;23096;50.892;16.746;2023-06-14T08:21:32;14.70;;;12.30;;
37199;SDS011;23096;50.892;16.746;2023-06-14T08:23:58;14.20;;;11.80;;
37199;SDS011;23096;50.892;16.746;2023-06-14T08:26:25;13.50;;;11.20;;
37199;SDS011;23096;50.892;16.746;2023-06-14T08:28:54;14.20;;;11.60;;
37199;SDS011;23096;50.892;16.746;2023-06-14T08:31:20;15.20;;;11.50;;
37199;SDS011;23096;50.892;16.746;2023-06-14T08:33:53;13.70;;;11.20;;
37199;SDS011;23096;50.892;16.746;2023-06-14T08:36:19;14.20;;;11.20;;
37199;SDS011;23096;50.892;16.746;2023-06-14T08:38:44;14.70;;;11.20;;
37199;SDS011;23096;50.892;16.746;2023-06-14T08:41:11;14.50;;;11.30;;
37199;SDS011;23096;50.892;16.746;2023-06-14T08:43:38;15.70;;;11.20;;
37199;SDS011;23096;50.892;16.746;2023-06-14T08:46:04;15.90;;;10.90;;
37199;SDS011;23096;50.892;16.746;2023-06-14T08:48:33;14.40;;;10.70;;
37199;SDS011;23096;50.892;16.746;2023-06-14T08:51:00;11.50;;;10.30;;
37199;SDS011;23096;50.892;16.746;2023-06-14T08:53:32;12.70;;;10.60;;
37199;SDS011;23096;50.892;16.746;2023-06-14T08:56:02;12.00;;;9.70;;
37199;SDS011;23096;50.892;16.746;2023-06-14T08:58:33;13.40;;;11.20;;
37199;SDS011;23096;50.892;16.746;2023-06-14T09:01:02;14.10;;;11.80;;
37199;SDS011;23096;50.892;16.746;2023-06-14T09:03:27;13.40;;;10.20;;
37199;SDS011;23096;50.892;16.746;2023-06-14T09:05:56;12.00;;;10.70;;
37199;SDS011;23096;50.892;16.746;2023-06-14T09:08:29;13.60;;;10.40;;
37199;SDS011;23096;50.892;16.746;2023-06-14T09:10:56;14.00;;;11.40;;
37199;SDS011;23096;50.892;16.746;2023-06-14T09:13:22;11.40;;;10.10;;
37199;SDS011;23096;50.892;16.746;2023-06-14T09:15:47;14.20;;;10.50;;
37199;SDS011;23096;50.892;16.746;2023-06-14T09:18:13;9.80;;;8.40;;
37199;SDS011;23096;50.892;16.746;2023-06-14T09:20:38;11.00;;;8.80;;
37199;SDS011;23096;50.892;16.746;2023-06-14T09:23:06;9.70;;;8.50;;
37199;SDS011;23096;50.892;16.746;2023-06-14T09:25:43;13.30;;;10.80;;
37199;SDS011;23096;50.892;16.746;2023-06-14T09:28:13;14.30;;;10.50;;
37199;SDS011;23096;50.892;16.746;2023-06-14T09:30:38;13.60;;;10.60;;
37199;SDS011;23096;50.892;16.746;2023-06-14T09:33:04;11.50;;;9.70;;
37199;SDS011;23096;50.892;16.746;2023-06-14T09:35:32;9.80;;;8.80;;
37199;SDS011;23096;50.892;16.746;2023-06-14T09:38:00;11.00;;;9.70;;
37199;SDS011;23096;50.892;16.746;2023-06-14T09:40:26;11.10;;;9.50;;
37199;SDS011;23096;50.892;16.746;2023-06-14T09:42:55;9.70;;;8.70;;
37199;SDS011;23096;50.892;16.746;2023-06-14T09:45:25;12.20;;;10.00;;
37199;SDS011;23096;50.892;16.746;2023-06-14T09:47:54;12.40;;;9.40;;
37199;SDS011;23096;50.892;16.746;2023-06-14T09:50:20;14.10;;;10.10;;
37199;SDS011;23096;50.892;16.746;2023-06-14T09:52:46;10.30;;;8.30;;
37199;SDS011;23096;50.892;16.746;2023-06-14T09:55:17;10.30;;;9.20;;
37199;SDS011;23096;50.892;16.746;2023-06-14T09:57:47;10.40;;;8.70;;
37199;SDS011;23096;50.892;16.746;2023-06-14T10:00:13;8.40;;;7.30;;
37199;SDS011;23096;50.892;16.746;2023-06-14T10:02:40;9.50;;;7.70;;
37199;SDS011;23096;50.892;16.746;2023-06-14T10:05:13;9.60;;;8.70;;
37199;SDS011;23096;50.892;16.746;2023-06-14T10:07:53;12.30;;;8.90;;
37199;SDS011;23096;50.892;16.746;2023-06-14T10:10:24;10.40;;;8.30;;
37199;SDS011;23096;50.892;16.746;2023-06-14T10:12:50;10.90;;;8.40;;
37199;SDS011;23096;50.892;16.746;2023-06-14T10:15:19;8.60;;;7.40;;
37199;SDS011;23096;50.892;16.746;2023-06-14T10:23:22;13.80;;;8.90;;
37199;SDS011;23096;50.892;16.746;2023-06-14T10:25:50;10.30;;;7.90;;
37199;SDS011;23096;50.892;16.746;2023-06-14T10:28:22;7.90;;;6.90;;
37199;SDS011;23096;50.892;16.746;2023-06-14T10:36:08;6.80;;;6.00;;
37199;SDS011;23096;50.892;16.746;2023-06-14T10:38:36;11.40;;;7.00;;
37199;SDS011;23096;50.892;16.746;2023-06-14T10:41:03;6.60;;;5.40;;
37199;SDS011;23096;50.892;16.746;2023-06-14T10:43:29;7.70;;;5.20;;
37199;SDS011;23096;50.892;16.746;2023-06-14T10:46:12;6.90;;;5.70;;
37199;SDS011;23096;50.892;16.746;2023-06-14T10:48:42;7.90;;;6.10;;
37199;SDS011;23096;50.892;16.746;2023-06-14T10:51:18;7.20;;;6.00;;
37199;SDS011;23096;50.892;16.746;2023-06-14T10:53:48;7.10;;;5.80;;
37199;SDS011;23096;50.892;16.746;2023-06-14T10:56:26;7.80;;;6.00;;
37199;SDS011;23096;50.892;16.746;2023-06-14T10:58:57;10.00;;;7.20;;
37199;SDS011;23096;50.892;16.746;2023-06-14T11:01:35;9.20;;;7.00;;
37199;SDS011;23096;50.892;16.746;2023-06-14T11:04:23;12.20;;;8.10;;
37199;SDS011;23096;50.892;16.746;2023-06-14T11:07:10;9.70;;;6.70;;
37199;SDS011;23096;50.892;16.746;2023-06-14T11:10:03;12.00;;;6.40;;
37199;SDS011;23096;50.892;16.746;2023-06-14T11:12:40;8.50;;;6.50;;
37199;SDS011;23096;50.892;16.746;2023-06-14T11:15:10;9.00;;;6.70;;
37199;SDS011;23096;50.892;16.746;2023-06-14T11:17:37;10.00;;;7.40;;
37199;SDS011;23096;50.892;16.746;2023-06-14T11:20:08;10.60;;;7.70;;
37199;SDS011;23096;50.892;16.746;2023-06-14T11:22:44;10.20;;;6.70;;
37199;SDS011;23096;50.892;16.746;2023-06-14T11:25:13;10.20;;;7.00;;
37199;SDS011;23096;50.892;16.746;2023-06-14T11:27:41;9.50;;;7.50;;
37199;SDS011;23096;50.892;16.746;2023-06-14T11:30:11;15.90;;;8.50;;
37199;SDS011;23096;50.892;16.746;2023-06-14T11:32:38;12.70;;;9.30;;
37199;SDS011;23096;50.892;16.746;2023-06-14T11:35:07;12.60;;;9.00;;
37199;SDS011;23096;50.892;16.746;2023-06-14T11:37:35;20.10;;;9.40;;
37199;SDS011;23096;50.892;16.746;2023-06-14T11:40:06;12.20;;;8.90;;
37199;SDS011;23096;50.892;16.746;2023-06-14T11:42:36;14.70;;;9.60;;
37199;SDS011;23096;50.892;16.746;2023-06-14T11:45:03;10.50;;;7.60;;
37199;SDS011;23096;50.892;16.746;2023-06-14T11:47:33;12.40;;;8.60;;
37199;SDS011;23096;50.892;16.746;2023-06-14T11:50:01;12.30;;;8.20;;
37199;SDS011;23096;50.892;16.746;2023-06-14T11:52:28;11.90;;;8.40;;
37199;SDS011;23096;50.892;16.746;2023-06-14T11:54:53;27.20;;;7.60;;
37199;SDS011;23096;50.892;16.746;2023-06-14T11:57:36;6.40;;;4.90;;
37199;SDS011;23096;50.892;16.746;2023-06-14T12:00:08;9.00;;;5.10;;
37199;SDS011;23096;50.892;16.746;2023-06-14T12:02:37;12.80;;;5.50;;
37199;SDS011;23096;50.892;16.746;2023-06-14T12:05:04;7.90;;;5.30;;
37199;SDS011;23096;50.892;16.746;2023-06-14T12:07:33;8.80;;;5.90;;
37199;SDS011;23096;50.892;16.746;2023-06-14T12:12:24;7.50;;;5.00;;
37199;SDS011;23096;50.892;16.746;2023-06-14T12:14:51;6.60;;;4.90;;
37199;SDS011;23096;50.892;16.746;2023-06-14T12:17:17;4.80;;;4.20;;
37199;SDS011;23096;50.892;16.746;2023-06-14T12:19:46;7.10;;;4.30;;
37199;SDS011;23096;50.892;16.746;2023-06-14T12:22:15;11.80;;;3.30;;
37199;SDS011;23096;50.892;16.746;2023-06-14T12:24:45;6.70;;;3.80;;
37199;SDS011;23096;50.892;16.746;2023-06-14T12:27:11;5.80;;;3.20;;
37199;SDS011;23096;50.892;16.746;2023-06-14T12:29:40;4.90;;;3.10;;
37199;SDS011;23096;50.892;16.746;2023-06-14T12:32:09;7.40;;;3.80;;
37199;SDS011;23096;50.892;16.746;2023-06-14T12:34:35;5.10;;;3.70;;
37199;SDS011;23096;50.892;16.746;2023-06-14T12:37:01;3.90;;;2.30;;
37199;SDS011;23096;50.892;16.746;2023-06-14T12:39:28;4.80;;;2.80;;
37199;SDS011;23096;50.892;16.746;2023-06-14T12:41:55;9.50;;;3.70;;
37199;SDS011;23096;50.892;16.746;2023-06-14T12:44:20;4.40;;;3.80;;
37199;SDS011;23096;50.892;16.746;2023-06-14T12:46:48;3.70;;;3.30;;
37199;SDS011;23096;50.892;16.746;2023-06-14T12:49:19;4.70;;;3.20;;
37199;SDS011;23096;50.892;16.746;2023-06-14T12:51:45;4.80;;;3.90;;
37199;SDS011;23096;50.892;16.746;2023-06-14T12:54:11;6.70;;;4.30;;
37199;SDS011;23096;50.892;16.746;2023-06-14T12:56:39;12.10;;;4.10;;
37199;SDS011;23096;50.892;16.746;2023-06-14T12:59:06;7.70;;;4.30;;
37199;SDS011;23096;50.892;16.746;2023-06-14T13:01:32;10.00;;;4.30;;
37199;SDS011;23096;50.892;16.746;2023-06-14T13:03:58;5.00;;;3.20;;
37199;SDS011;23096;50.892;16.746;2023-06-14T13:06:23;5.00;;;3.40;;
37199;SDS011;23096;50.892;16.746;2023-06-14T13:08:49;8.30;;;3.80;;
37199;SDS011;23096;50.892;16.746;2023-06-14T13:11:15;6.00;;;4.90;;
37199;SDS011;23096;50.892;16.746;2023-06-14T13:13:41;5.50;;;3.90;;
37199;SDS011;23096;50.892;16.746;2023-06-14T13:16:06;4.30;;;3.90;;
37199;SDS011;23096;50.892;16.746;2023-06-14T13:18:32;8.00;;;3.90;;
37199;SDS011;23096;50.892;16.746;2023-06-14T13:20:57;6.10;;;3.90;;
37199;SDS011;23096;50.892;16.746;2023-06-14T13:23:23;4.20;;;3.80;;
37199;SDS011;23096;50.892;16.746;2023-06-14T13:25:49;6.20;;;3.70;;
37199;SDS011;23096;50.892;16.746;2023-06-14T13:28:17;5.30;;;3.90;;
37199;SDS011;23096;50.892;16.746;2023-06-14T13:30:43;6.10;;;3.90;;
37199;SDS011;23096;50.892;16.746;2023-06-14T13:33:09;4.90;;;4.00;;
37199;SDS011;23096;50.892;16.746;2023-06-14T13:35:34;5.60;;;4.10;;
37199;SDS011;23096;50.892;16.746;2023-06-14T13:38:00;7.50;;;4.70;;
37199;SDS011;23096;50.892;16.746;2023-06-14T13:40:26;6.00;;;4.40;;
37199;SDS011;23096;50.892;16.746;2023-06-14T13:42:51;11.70;;;4.70;;
37199;SDS011;23096;50.892;16.746;2023-06-14T13:45:19;8.10;;;4.40;;
37199;SDS011;23096;50.892;16.746;2023-06-14T13:47:45;9.80;;;4.50;;
37199;SDS011;23096;50.892;16.746;2023-06-14T13:50:13;8.20;;;4.00;;
37199;SDS011;23096;50.892;16.746;2023-06-14T13:52:39;7.30;;;4.30;;
37199;SDS011;23096;50.892;16.746;2023-06-14T13:55:05;6.20;;;4.10;;
37199;SDS011;23096;50.892;16.746;2023-06-14T13:57:31;5.60;;;3.50;;
37199;SDS011;23096;50.892;16.746;2023-06-14T13:59:57;5.70;;;4.20;;
37199;SDS011;23096;50.892;16.746;2023-06-14T14:02:26;6.30;;;4.70;;
37199;SDS011;23096;50.892;16.746;2023-06-14T14:04:53;7.00;;;4.70;;
37199;SDS011;23096;50.892;16.746;2023-06-14T14:07:20;8.40;;;4.50;;
37199;SDS011;23096;50.892;16.746;2023-06-14T14:09:47;12.60;;;5.00;;
37199;SDS011;23096;50.892;16.746;2023-06-14T14:12:12;6.50;;;4.30;;
37199;SDS011;23096;50.892;16.746;2023-06-14T14:14:39;7.00;;;4.60;;
37199;SDS011;23096;50.892;16.746;2023-06-14T14:17:05;11.90;;;5.20;;
37199;SDS011;23096;50.892;16.746;2023-06-14T14:19:32;8.50;;;5.10;;
37199;SDS011;23096;50.892;16.746;2023-06-14T14:21:57;10.40;;;4.60;;
37199;SDS011;23096;50.892;16.746;2023-06-14T14:24:23;8.00;;;4.90;;
37199;SDS011;23096;50.892;16.746;2023-06-14T14:26:49;11.60;;;5.30;;
37199;SDS011;23096;50.892;16.746;2023-06-14T14:29:15;15.40;;;5.40;;
37199;SDS011;23096;50.892;16.746;2023-06-14T14:31:42;7.70;;;4.90;;
37199;SDS011;23096;50.892;16.746;2023-06-14T14:34:07;7.00;;;4.40;;
37199;SDS011;23096;50.892;16.746;2023-06-14T14:36:33;9.70;;;5.00;;
37199;SDS011;23096;50.892;16.746;2023-06-14T14:39:01;4.70;;;4.30;;
37199;SDS011;23096;50.892;16.746;2023-06-14T14:41:27;7.60;;;4.40;;
37199;SDS011;23096;50.892;16.746;2023-06-14T14:43:53;10.40;;;5.40;;
37199;SDS011;23096;50.892;16.746;2023-06-14T14:46:18;9.20;;;5.20;;
37199;SDS011;23096;50.892;16.746;2023-06-14T14:48:44;5.60;;;3.60;;